Time;durP1;ratioP1;P1;durP2;ratioP2;P2;SDS_P1;SDS_P2;PMS_P1;PMS_P2;Temp;Humidity;BMP_temperature;BMP_pressure;BME280_temperature;BME280_humidity;BME280_pressure;Samples;Min_cycle;Max_cycle;Signal;HPM_P1;HPM_P2
2022/11/04 00:02:07;;;;;;;;;;;7.80;99.90;;;;;;4945415;28;20405;-62
2022/11/04 00:04:33;;;;;;;1.45;0.70;;;7.80;99.90;;;;;;4943544;28;20675;-62
2022/11/04 00:07:00;;;;;;;2.42;0.80;;;7.80;99.90;;;;;;4942395;28;20405;-61
2022/11/04 00:09:28;;;;;;;;;;;7.80;99.90;;;;;;4944996;28;20161;-62
2022/11/04 00:14:41;;;;;;;0.80;0.70;;;7.70;99.90;;;;;;4943184;28;20079;-60
2022/11/04 00:17:24;;;;;;;2.67;0.60;;;7.70;99.90;;;;;;4943007;28;20321;-61
2022/11/04 00:33:51;;;;;;;0.43;0.43;;;7.60;99.90;;;;;;4950839;28;20062;-60
2022/11/04 00:36:18;;;;;;;0.95;0.77;;;7.60;99.90;;;;;;4942963;28;20247;-62
2022/11/04 00:38:45;;;;;;;1.45;0.68;;;7.60;99.90;;;;;;4944306;28;20535;-61
2022/11/04 00:41:28;;;;;;;0.65;0.63;;;7.60;99.90;;;;;;4943286;28;20304;-61
2022/11/04 00:44:00;;;;;;;0.52;0.43;;;7.60;99.90;;;;;;4944693;28;20509;-61
2022/11/04 00:46:28;;;;;;;1.17;0.95;;;7.60;99.90;;;;;;4942194;28;20121;-62
2022/11/04 00:48:55;;;;;;;0.63;0.63;;;7.60;99.90;;;;;;4945056;28;20062;-62
2022/11/04 00:51:22;;;;;;;0.93;0.65;;;7.70;99.90;;;;;;4940762;28;20047;-62
2022/11/04 00:53:50;;;;;;;2.15;0.63;;;7.70;99.90;;;;;;4940962;28;20539;-62
2022/11/04 00:56:17;;;;;;;1.17;0.70;;;7.70;99.90;;;;;;4941925;28;20487;-61
2022/11/04 00:58:43;;;;;;;;;;;7.70;99.90;;;;;;4973052;28;20050;-61
2022/11/04 01:01:16;;;;;;;0.82;0.60;;;7.70;99.90;;;;;;4940395;28;19930;-63
2022/11/04 01:03:48;;;;;;;3.85;0.70;;;7.60;99.90;;;;;;4940893;28;20461;-61
2022/11/04 01:06:16;;;;;;;0.60;0.60;;;7.60;99.90;;;;;;4942387;28;20668;-62
2022/11/04 01:08:42;;;;;;;0.63;0.60;;;7.60;99.90;;;;;;4941492;28;20550;-62
2022/11/04 01:11:10;;;;;;;;;;;7.60;99.90;;;;;;4942510;28;20143;-62
2022/11/04 01:13:37;;;;;;;0.80;0.80;;;7.60;99.90;;;;;;4942797;28;20021;-62
2022/11/04 01:16:08;;;;;;;0.52;0.52;;;7.50;99.90;;;;;;4941895;28;20074;-62
2022/11/04 01:18:35;;;;;;;0.70;0.70;;;7.50;99.90;;;;;;4938665;28;20071;-62
2022/11/04 01:21:07;;;;;;;12.60;0.80;;;7.50;99.90;;;;;;4941083;28;20134;-62
2022/11/04 01:23:34;;;;;;;0.98;0.73;;;7.40;99.90;;;;;;4940840;28;20047;-62
2022/11/04 01:26:07;;;;;;;3.22;0.60;;;7.30;99.90;;;;;;4943179;28;20059;-62
2022/11/04 01:28:34;;;;;;;1.90;0.63;;;7.30;99.90;;;;;;4942083;28;20134;-62
2022/11/04 01:31:12;;;;;;;3.20;0.90;;;7.20;99.90;;;;;;4942338;28;20043;-62
2022/11/04 01:33:40;;;;;;;0.70;0.60;;;7.20;99.90;;;;;;4941053;28;20078;-63
2022/11/04 01:36:09;;;;;;;2.92;0.60;;;7.20;99.90;;;;;;4941696;28;20556;-63
2022/11/04 01:38:36;;;;;;;1.17;0.70;;;7.10;99.90;;;;;;4942066;28;20050;-63
2022/11/04 01:41:03;;;;;;;;;;;7.00;99.90;;;;;;4941847;28;20046;-63
2022/11/04 01:43:44;;;;;;;2.05;0.52;;;7.00;99.90;;;;;;4944902;28;20411;-63
2022/11/04 01:46:29;;;;;;;0.77;0.65;;;7.00;99.90;;;;;;4942662;28;20276;-63
2022/11/04 01:49:02;;;;;;;0.95;0.90;;;7.10;99.90;;;;;;4937896;28;20047;-63
2022/11/04 01:51:33;;;;;;;0.73;0.70;;;7.10;99.90;;;;;;4940747;28;20581;-63
2022/11/04 01:54:03;;;;;;;0.70;0.70;;;7.00;99.90;;;;;;4939857;28;20056;-63
2022/11/04 01:56:30;;;;;;;1.27;0.90;;;7.00;99.90;;;;;;4940295;28;20043;-63
2022/11/04 01:59:04;;;;;;;3.70;1.70;;;7.10;99.90;;;;;;4940849;28;20549;-63
2022/11/04 02:01:30;;;;;;;2.38;1.10;;;7.10;99.90;;;;;;4939494;28;20146;-63
2022/11/04 02:04:24;;;;;;;;;;;7.00;99.90;;;;;;4938040;28;20055;-63
2022/11/04 02:06:47;;;;;;;1.85;1.20;;;7.00;99.90;;;;;;4939962;28;20186;-63
2022/11/04 02:09:16;;;;;;;1.00;0.88;;;7.00;99.90;;;;;;4940927;28;20051;-63
2022/11/04 02:14:29;;;;;;;1.65;0.65;;;7.00;99.90;;;;;;4942431;28;20109;-63
2022/11/04 02:17:31;;;;;;;0.70;0.70;;;7.10;99.90;;;;;;4948526;28;20047;-61
2022/11/04 02:20:19;;;;;;;1.08;0.98;;;7.00;99.90;;;;;;4928572;28;20226;-63
2022/11/04 02:23:23;;;;;;;1.75;1.00;;;7.00;99.90;;;;;;4940359;28;20047;-63
2022/11/04 02:26:28;;;;;;;2.35;0.88;;;7.00;99.90;;;;;;4943831;28;20424;-62
2022/11/04 02:29:28;;;;;;;1.08;0.95;;;6.90;99.90;;;;;;4942311;28;20046;-62
2022/11/04 02:32:17;;;;;;;0.93;0.82;;;6.90;99.90;;;;;;4942986;28;20349;-62
2022/11/04 02:35:11;;;;;;;2.00;0.77;;;6.90;99.90;;;;;;4941508;28;20061;-62
2022/11/04 02:37:56;;;;;;;1.00;0.90;;;6.80;99.90;;;;;;4941461;28;20083;-62
2022/11/04 02:40:35;;;;;;;0.73;0.73;;;6.80;99.90;;;;;;4942957;28;20691;-63
2022/11/04 02:43:09;;;;;;;1.60;1.00;;;6.80;99.90;;;;;;4939960;28;20058;-63
2022/11/04 02:45:46;;;;;;;4.25;0.90;;;6.80;99.90;;;;;;4938978;28;20046;-62
2022/11/04 02:48:23;;;;;;;1.93;0.87;;;6.80;99.90;;;;;;4940488;28;20650;-63
2022/11/04 02:51:16;;;;;;;1.50;1.13;;;6.80;99.90;;;;;;4938157;28;20066;-63
2022/11/04 02:53:55;;;;;;;2.88;0.80;;;6.80;99.90;;;;;;4942068;28;20046;-62
2022/11/04 02:56:23;;;;;;;1.02;0.90;;;6.80;99.90;;;;;;4952194;28;20047;-62
2022/11/04 02:58:56;;;;;;;0.68;0.68;;;6.80;99.90;;;;;;4941453;28;20043;-62
2022/11/04 03:01:28;;;;;;;1.65;0.60;;;6.80;99.90;;;;;;4940019;28;20070;-62
2022/11/04 03:04:10;;;;;;;3.20;0.82;;;6.90;99.90;;;;;;4941308;28;20678;-63
2022/11/04 03:06:38;;;;;;;0.88;0.80;;;6.80;99.90;;;;;;4939060;28;20098;-63
2022/11/04 03:09:07;;;;;;;0.82;0.60;;;6.90;99.90;;;;;;4938845;28;20437;-63
2022/11/04 03:11:35;;;;;;;2.17;0.85;;;6.90;99.90;;;;;;4937803;28;20051;-62
2022/11/04 03:14:10;;;;;;;0.63;0.63;;;7.00;99.90;;;;;;4942117;28;20043;-62
2022/11/04 03:16:39;;;;;;;1.42;0.88;;;7.00;99.90;;;;;;4943042;28;20057;-62
2022/11/04 03:19:36;;;;;;;1.50;0.80;;;7.00;99.90;;;;;;4944050;28;20394;-62
2022/11/04 03:22:13;;;;;;;1.63;0.73;;;7.00;99.90;;;;;;4942387;28;20125;-63
2022/11/04 03:24:41;;;;;;;2.50;1.10;;;7.00;99.90;;;;;;4942990;28;20071;-62
2022/11/04 03:27:45;;;;;;;1.33;0.90;;;7.00;99.90;;;;;;4944441;28;20430;-63
2022/11/04 03:30:20;;;;;;;2.40;0.98;;;7.00;99.90;;;;;;4943057;28;20610;-63
2022/11/04 03:33:03;;;;;;;1.00;0.85;;;7.00;99.90;;;;;;4942739;28;20047;-63
2022/11/04 03:35:30;;;;;;;1.13;0.80;;;7.10;99.90;;;;;;4940591;28;20053;-63
2022/11/04 03:37:57;;;;;;;2.50;0.85;;;7.10;99.90;;;;;;4974673;28;20493;-63
2022/11/04 03:40:25;;;;;;;1.85;0.80;;;7.10;99.90;;;;;;4944104;28;20054;-62
2022/11/04 03:43:09;;;;;;;0.85;0.80;;;7.00;99.90;;;;;;4944066;28;20405;-62
2022/11/04 03:45:37;;;;;;;3.03;0.50;;;7.10;99.90;;;;;;4942273;28;20066;-63
2022/11/04 03:48:05;;;;;;;0.80;0.80;;;7.00;99.90;;;;;;4944415;28;20050;-62
2022/11/04 03:50:41;;;;;;;2.95;0.77;;;7.00;99.90;;;;;;4945256;28;20051;-63
2022/11/04 03:53:10;;;;;;;1.73;0.85;;;7.00;99.90;;;;;;4943368;28;20051;-63
2022/11/04 03:56:11;;;;;;;1.65;1.10;;;7.00;99.90;;;;;;4941125;28;20738;-62
2022/11/04 03:59:10;;;;;;;1.17;0.90;;;7.00;99.90;;;;;;4944669;28;20461;-63
2022/11/04 04:01:48;;;;;;;0.75;0.75;;;7.00;99.90;;;;;;4943177;28;20321;-64
2022/11/04 04:04:32;;;;;;;0.73;0.65;;;6.90;99.90;;;;;;4943637;28;20190;-63
2022/11/04 04:07:13;;;;;;;0.95;0.82;;;6.90;99.90;;;;;;4944304;28;20702;-63
2022/11/04 04:09:50;;;;;;;1.05;0.95;;;6.90;99.90;;;;;;4943170;28;20165;-63
2022/11/04 04:12:25;;;;;;;0.82;0.82;;;6.90;99.90;;;;;;4943149;28;20589;-63
2022/11/04 04:14:59;;;;;;;1.08;0.80;;;6.80;99.90;;;;;;4945374;28;20308;-63
2022/11/04 04:17:49;;;;;;;1.08;0.88;;;6.80;99.90;;;;;;4945505;28;20043;-63
2022/11/04 04:20:22;;;;;;;1.25;0.85;;;6.80;99.90;;;;;;4943366;28;20035;-63
2022/11/04 04:22:57;;;;;;;1.38;0.85;;;6.80;99.90;;;;;;4941768;28;20149;-63
2022/11/04 04:28:16;;;;;;;1.80;1.08;;;6.80;99.90;;;;;;4940736;28;20521;-64
2022/11/04 04:30:43;;;;;;;7.97;1.30;;;6.80;99.90;;;;;;4943202;28;20055;-63
2022/11/04 04:33:15;;;;;;;1.13;0.95;;;6.80;99.90;;;;;;4945503;28;20113;-62
2022/11/04 04:35:55;;;;;;;2.55;1.15;;;6.80;99.90;;;;;;4947056;28;20039;-62
2022/11/04 04:46:51;;;;;;;2.90;1.42;;;6.80;99.90;;;;;;4946476;28;20199;-62
2022/11/04 04:49:18;;;;;;;2.10;1.20;;;6.80;99.90;;;;;;4949466;28;20517;-62
2022/11/04 04:51:47;;;;;;;1.83;1.38;;;6.80;99.90;;;;;;4945341;28;20055;-62
2022/11/04 04:54:13;;;;;;;2.15;1.02;;;6.80;99.90;;;;;;4944904;28;20047;-64
2022/11/04 04:56:40;;;;;;;6.55;2.25;;;6.80;99.90;;;;;;4939338;28;20342;-63
2022/11/04 04:59:07;;;;;;;4.35;2.10;;;6.90;99.90;;;;;;4945959;28;20057;-63
2022/11/04 05:01:34;;;;;;;;;;;6.90;99.90;;;;;;4942647;28;20051;-63
2022/11/04 05:04:01;;;;;;;4.43;1.77;;;6.80;99.90;;;;;;4944273;28;19930;-63
2022/11/04 05:06:27;;;;;;;;;;;6.80;99.90;;;;;;4946177;28;20074;-63
2022/11/04 05:08:54;;;;;;;4.88;1.88;;;6.80;99.90;;;;;;4941434;28;20324;-63
2022/11/04 05:11:21;;;;;;;7.78;1.30;;;6.80;99.90;;;;;;4947600;28;20057;-64
2022/11/04 05:13:52;;;;;;;1.75;0.98;;;6.80;99.90;;;;;;4944149;28;20130;-63
2022/11/04 05:16:19;;;;;;;;;;;6.80;99.90;;;;;;4943125;28;20065;-63
2022/11/04 05:18:46;;;;;;;5.88;1.10;;;6.70;99.90;;;;;;4946920;28;19932;-63
2022/11/04 05:21:14;;;;;;;2.25;1.10;;;6.70;99.90;;;;;;4943492;28;20061;-63
2022/11/04 05:23:41;;;;;;;1.40;1.27;;;6.70;99.90;;;;;;4940591;28;20067;-63
2022/11/04 05:26:08;;;;;;;3.70;1.30;;;6.70;99.90;;;;;;4942883;28;20039;-63
2022/11/04 05:28:34;;;;;;;2.33;1.17;;;6.70;99.90;;;;;;4941465;28;20481;-63
2022/11/04 05:31:03;;;;;;;1.17;0.68;;;6.60;99.90;;;;;;4943636;28;20325;-63
2022/11/04 05:33:30;;;;;;;2.92;0.77;;;6.60;99.90;;;;;;4940966;28;20047;-63
2022/11/04 05:36:12;;;;;;;4.28;1.10;;;6.60;99.90;;;;;;4939435;28;20055;-63
2022/11/04 05:38:39;;;;;;;2.05;1.17;;;6.60;99.90;;;;;;4942359;28;20138;-63
2022/11/04 05:41:07;;;;;;;2.15;1.30;;;6.60;99.90;;;;;;4943246;28;20039;-63
2022/11/04 05:43:34;;;;;;;0.88;0.70;;;6.60;99.90;;;;;;4940402;28;20429;-63
2022/11/04 05:46:01;;;;;;;;;;;6.60;99.90;;;;;;4944399;28;20051;-63
2022/11/04 05:48:28;;;;;;;2.40;1.48;;;6.60;99.90;;;;;;4947464;28;19926;-63
2022/11/04 05:50:55;;;;;;;1.23;0.98;;;6.60;99.90;;;;;;4941182;28;20141;-64
2022/11/04 05:53:22;;;;;;;3.60;1.50;;;6.60;99.90;;;;;;4945019;28;20128;-62
2022/11/04 05:55:49;;;;;;;;;;;6.60;99.90;;;;;;4938977;28;20047;-62
2022/11/04 05:58:15;;;;;;;2.63;2.00;;;6.50;99.90;;;;;;4954456;28;19926;-62
2022/11/04 06:00:42;;;;;;;3.83;2.28;;;6.60;99.90;;;;;;4941915;28;20053;-63
2022/11/04 06:03:09;;;;;;;3.30;1.98;;;6.50;99.90;;;;;;4940606;28;20062;-64
2022/11/04 06:05:41;;;;;;;2.55;1.70;;;6.50;99.90;;;;;;4941796;28;20081;-63
2022/11/04 06:08:08;;;;;;;4.93;2.05;;;6.50;99.90;;;;;;4942338;28;20065;-63
2022/11/04 06:10:35;;;;;;;3.30;1.40;;;6.50;99.90;;;;;;4950043;28;20074;-62
2022/11/04 06:13:02;;;;;;;1.77;1.20;;;6.40;99.90;;;;;;4939176;28;20655;-62
2022/11/04 06:15:29;;;;;;;7.60;1.70;;;6.40;99.90;;;;;;4939414;28;20260;-63
2022/11/04 06:17:55;;;;;;;1.33;1.20;;;6.40;99.90;;;;;;4943015;28;20528;-62
2022/11/04 06:20:22;;;;;;;2.33;1.38;;;6.40;99.90;;;;;;4941673;28;20045;-63
2022/11/04 06:22:49;;;;;;;2.67;1.48;;;6.40;99.90;;;;;;4939876;28;20125;-63
2022/11/04 06:25:16;;;;;;;5.38;1.60;;;6.40;99.90;;;;;;4938659;28;20055;-63
2022/11/04 06:27:42;;;;;;;;;;;6.40;99.90;;;;;;4940045;28;20059;-52
2022/11/04 06:30:10;;;;;;;4.15;1.42;;;6.30;99.90;;;;;;4941689;28;20096;-54
2022/11/04 06:32:36;;;;;;;2.72;1.58;;;6.30;99.90;;;;;;4938370;28;20539;-56
2022/11/04 06:35:03;;;;;;;2.97;1.58;;;6.30;99.90;;;;;;4941937;28;20047;-56
2022/11/04 06:37:30;;;;;;;2.80;1.38;;;6.30;99.90;;;;;;4939494;28;20050;-55
2022/11/04 06:39:57;;;;;;;1.13;1.02;;;6.30;99.90;;;;;;4941188;28;20043;-56
2022/11/04 06:42:25;;;;;;;1.85;1.10;;;6.30;99.90;;;;;;4941146;28;20400;-55
2022/11/04 06:44:52;;;;;;;1.80;1.13;;;6.30;99.90;;;;;;4939956;28;20161;-55
2022/11/04 06:47:19;;;;;;;4.65;1.23;;;6.30;99.90;;;;;;4944051;28;20121;-56
2022/11/04 06:49:50;;;;;;;2.40;1.92;;;6.30;99.90;;;;;;4943464;28;20051;-55
2022/11/04 06:52:17;;;;;;;;;;;6.30;99.90;;;;;;4945283;28;20552;-56
2022/11/04 06:54:44;;;;;;;1.90;1.30;;;6.40;99.90;;;;;;4943501;28;19926;-57
2022/11/04 06:57:11;;;;;;;1.02;0.93;;;6.40;99.90;;;;;;4941035;28;20058;-56
2022/11/04 06:59:38;;;;;;;4.15;1.60;;;6.40;99.90;;;;;;4940418;28;20122;-55
2022/11/04 07:02:05;;;;;;;4.28;1.70;;;6.40;99.90;;;;;;4942148;28;20047;-56
2022/11/04 07:04:32;;;;;;;2.58;1.10;;;6.50;99.90;;;;;;4945228;28;20078;-55
2022/11/04 07:06:58;;;;;;;1.73;1.05;;;6.50;99.90;;;;;;4946518;28;20107;-56
2022/11/04 07:09:25;;;;;;;1.77;1.30;;;6.50;99.90;;;;;;4944086;28;20042;-56
2022/11/04 07:11:52;;;;;;;1.88;1.67;;;6.50;99.90;;;;;;4946868;28;20118;-55
2022/11/04 07:14:18;;;;;;;1.98;1.55;;;6.50;99.90;;;;;;4943733;28;20050;-55
2022/11/04 07:16:49;;;;;;;2.08;1.38;;;6.50;99.90;;;;;;4942961;28;20062;-56
2022/11/04 07:19:15;;;;;;;3.53;1.48;;;6.60;99.90;;;;;;4945731;28;20065;-56
2022/11/04 07:21:42;;;;;;;1.20;1.10;;;6.50;99.90;;;;;;4943337;28;20054;-55
2022/11/04 07:24:08;;;;;;;2.88;1.30;;;6.50;99.90;;;;;;4943132;28;20114;-54
2022/11/04 07:26:35;;;;;;;8.63;1.38;;;6.50;99.90;;;;;;4942538;28;20194;-56
2022/11/04 07:29:02;;;;;;;;;;;6.60;99.90;;;;;;4940967;28;20420;-55
2022/11/04 07:31:29;;;;;;;2.25;1.50;;;6.60;99.90;;;;;;4944528;28;19925;-56
2022/11/04 07:33:55;;;;;;;2.53;1.73;;;6.60;99.90;;;;;;4942200;28;20071;-55
2022/11/04 07:36:22;;;;;;;;;;;6.60;99.90;;;;;;4942557;28;20287;-58
2022/11/04 07:38:49;;;;;;;3.92;2.42;;;6.70;99.90;;;;;;4943413;28;19933;-57
2022/11/04 07:41:16;;;;;;;4.00;2.47;;;6.70;99.90;;;;;;4944894;28;20055;-53
2022/11/04 07:43:47;;;;;;;3.13;2.33;;;6.70;99.90;;;;;;4943572;28;20050;-55
2022/11/04 07:46:14;;;;;;;4.47;2.72;;;6.70;99.90;;;;;;4945244;28;20450;-54
2022/11/04 07:48:41;;;;;;;2.47;2.10;;;6.80;99.90;;;;;;4941602;28;20888;-57
2022/11/04 07:51:11;;;;;;;2.30;1.80;;;6.80;99.90;;;;;;4945046;28;20075;-54
2022/11/04 07:53:38;;;;;;;3.58;2.00;;;6.80;99.90;;;;;;4944088;28;20043;-55
2022/11/04 07:56:07;;;;;;;2.15;1.75;;;6.90;99.90;;;;;;4974748;28;20445;-55
2022/11/04 07:58:34;;;;;;;2.42;1.77;;;6.90;99.90;;;;;;4957860;28;20118;-55
2022/11/04 08:01:04;;;;;;;4.53;2.03;;;6.90;99.90;;;;;;4944592;28;20411;-54
2022/11/04 08:03:30;;;;;;;4.72;1.88;;;7.00;99.90;;;;;;4942306;28;20151;-55
2022/11/04 08:05:58;;;;;;;;;;;7.00;99.90;;;;;;4944322;28;20545;-56
2022/11/04 08:08:25;;;;;;;2.88;1.90;;;7.00;99.90;;;;;;4944174;28;20001;-54
2022/11/04 08:11:01;;;;;;;2.08;1.80;;;7.10;99.90;;;;;;4973864;28;20054;-55
2022/11/04 08:13:30;;;;;;;2.17;1.58;;;7.10;99.90;;;;;;4942358;28;20051;-56
2022/11/04 08:16:01;;;;;;;3.20;1.98;;;7.10;99.90;;;;;;4942732;28;20051;-55
2022/11/04 08:18:30;;;;;;;2.38;1.80;;;7.20;99.90;;;;;;4943789;28;20055;-54
2022/11/04 08:20:57;;;;;;;2.75;1.83;;;7.20;99.90;;;;;;4943401;28;20042;-55
2022/11/04 08:23:25;;;;;;;2.25;1.73;;;7.30;99.90;;;;;;4972946;28;20153;-54
2022/11/04 08:25:51;;;;;;;3.00;2.20;;;7.30;99.90;;;;;;4940815;28;20081;-54
2022/11/04 08:28:18;;;;;;;3.33;2.20;;;7.30;99.90;;;;;;4970451;28;20065;-55
2022/11/04 08:31:15;;;;;;;2.75;1.98;;;7.40;99.90;;;;;;4943582;28;20511;-55
2022/11/04 08:33:42;;;;;;;3.60;2.08;;;7.40;99.90;;;;;;4944357;28;20149;-55
2022/11/04 08:36:16;;;;;;;3.25;2.25;;;7.50;99.90;;;;;;4943963;28;20409;-54
2022/11/04 08:38:43;;;;;;;2.75;2.08;;;7.50;99.90;;;;;;4941642;28;20046;-54
2022/11/04 08:41:12;;;;;;;2.25;2.03;;;7.60;99.90;;;;;;4942957;28;20382;-61
2022/11/04 08:43:39;;;;;;;4.95;2.20;;;7.60;99.90;;;;;;4942603;28;20554;-55
2022/11/04 08:46:09;;;;;;;4.13;2.47;;;7.70;99.90;;;;;;4949628;28;20153;-55
2022/11/04 08:48:37;;;;;;;2.88;2.03;;;7.70;99.90;;;;;;4940621;28;20302;-57
2022/11/04 08:51:06;;;;;;;2.72;1.95;;;7.70;99.90;;;;;;4941226;28;20058;-56
2022/11/04 08:53:33;;;;;;;4.53;2.63;;;7.80;99.90;;;;;;4940513;28;20169;-54
2022/11/04 08:56:07;;;;;;;2.80;2.03;;;7.90;99.90;;;;;;4942024;28;20544;-56
2022/11/04 08:58:34;;;;;;;4.72;2.20;;;7.90;99.90;;;;;;4941481;28;20071;-54
2022/11/04 09:01:03;;;;;;;3.30;2.00;;;8.00;99.90;;;;;;4938932;28;20051;-54
2022/11/04 09:03:32;;;;;;;3.08;2.30;;;8.10;99.90;;;;;;4942340;28;20070;-55
2022/11/04 09:05:59;;;;;;;4.10;2.40;;;8.20;99.90;;;;;;4943249;28;20046;-54
2022/11/04 09:08:26;;;;;;;3.97;2.58;;;8.30;99.90;;;;;;4944563;28;20046;-54
2022/11/04 09:10:53;;;;;;;;;;;8.40;99.90;;;;;;4942159;28;20126;-55
2022/11/04 09:13:19;;;;;;;3.95;2.10;;;8.50;99.90;;;;;;4944211;28;20111;-56
2022/11/04 09:15:47;;;;;;;1.85;1.65;;;8.50;99.90;;;;;;4940841;28;20448;-54
2022/11/04 09:18:15;;;;;;;4.60;2.28;;;8.60;99.90;;;;;;4943154;28;20047;-53
2022/11/04 09:20:41;;;;;;;3.90;2.53;;;8.60;99.90;;;;;;4942695;28;20129;-54
2022/11/04 09:23:08;;;;;;;4.90;1.42;;;8.70;99.90;;;;;;4938603;28;20296;-54
2022/11/04 09:25:36;;;;;;;4.72;1.52;;;8.70;99.90;;;;;;4939803;28;20527;-55
2022/11/04 09:28:03;;;;;;;2.30;1.35;;;8.80;99.90;;;;;;4939295;28;20038;-54
2022/11/04 09:30:30;;;;;;;5.03;1.35;;;8.90;99.90;;;;;;4942677;28;20269;-55
2022/11/04 09:32:57;;;;;;;;;;;9.00;99.90;;;;;;4940126;28;20043;-55
2022/11/04 09:35:26;;;;;;;3.47;1.30;;;9.00;99.90;;;;;;4937927;28;20024;-53
2022/11/04 09:37:53;;;;;;;2.35;1.13;;;9.10;99.90;;;;;;4942709;28;20130;-56
2022/11/04 09:40:23;;;;;;;4.72;1.90;;;9.20;99.90;;;;;;4944134;28;20296;-55
2022/11/04 09:43:22;;;;;;;8.30;1.70;;;9.30;99.90;;;;;;4944174;28;20058;-55
2022/11/04 09:45:49;;;;;;;7.10;1.38;;;9.40;99.90;;;;;;4934285;28;20090;-55
2022/11/04 09:48:23;;;;;;;;;;;9.50;99.90;;;;;;4942674;28;20149;-56
2022/11/04 09:50:54;;;;;;;3.58;1.40;;;9.50;99.90;;;;;;4940315;28;20296;-58
2022/11/04 09:53:42;;;;;;;3.58;1.20;;;9.60;99.90;;;;;;4956462;28;20119;-54
2022/11/04 09:56:14;;;;;;;2.67;1.60;;;9.60;99.90;;;;;;4942438;28;20527;-54
2022/11/04 09:58:41;;;;;;;3.17;1.38;;;9.70;99.90;;;;;;4936475;28;20122;-55
2022/11/04 10:01:30;;;;;;;7.93;2.10;;;9.70;99.90;;;;;;4943189;28;20152;-56
2022/11/04 10:04:18;;;;;;;3.53;1.65;;;9.80;99.90;;;;;;4941339;28;20497;-58
2022/11/04 10:07:05;;;;;;;7.47;1.98;;;9.80;99.90;;;;;;4938467;28;20330;-55
2022/11/04 10:09:43;;;;;;;5.57;2.50;;;9.90;99.90;;;;;;4957139;28;20075;-58
2022/11/04 10:12:40;;;;;;;4.30;1.98;;;10.00;99.90;;;;;;4942014;28;20055;-64
2022/11/04 10:15:44;;;;;;;8.07;1.67;;;10.10;99.90;;;;;;4941862;28;20069;-55
2022/11/04 10:18:22;;;;;;;8.52;1.48;;;10.30;99.90;;;;;;4942585;28;20717;-54
2022/11/04 10:21:15;;;;;;;3.00;1.48;;;10.50;99.90;;;;;;4942195;28;20082;-57
2022/11/04 10:24:05;;;;;;;1.40;1.30;;;10.60;99.90;;;;;;4939205;28;20062;-56
2022/11/04 10:26:56;;;;;;;3.50;1.48;;;10.70;99.90;;;;;;4942444;28;20428;-56
2022/11/04 10:29:41;;;;;;;2.70;1.40;;;10.80;99.90;;;;;;4941594;28;20042;-56
2022/11/04 10:32:23;;;;;;;5.70;1.15;;;10.90;99.90;;;;;;4943612;28;20260;-56
2022/11/04 10:35:16;;;;;;;1.75;0.82;;;11.00;99.90;;;;;;4971102;28;20043;-55
2022/11/04 10:37:46;;;;;;;9.73;2.72;;;11.10;99.90;;;;;;4940196;28;20047;-59
2022/11/04 10:40:35;;;;;;;4.25;0.63;;;11.20;99.90;;;;;;4940707;28;20482;-53
2022/11/04 10:43:08;;;;;;;4.47;0.80;;;11.20;99.90;;;;;;4939081;28;20047;-53
2022/11/04 10:45:55;;;;;;;4.68;0.90;;;11.30;99.90;;;;;;4940742;28;20055;-54
2022/11/04 10:48:30;;;;;;;1.48;0.70;;;11.40;99.90;;;;;;4942256;28;20576;-53
2022/11/04 10:50:58;;;;;;;3.80;0.80;;;11.50;99.90;;;;;;4941290;28;20047;-55
2022/11/04 10:53:28;;;;;;;4.13;1.27;;;11.60;99.90;;;;;;4941445;28;20093;-56
2022/11/04 10:56:36;;;;;;;2.42;0.90;;;11.80;99.90;;;;;;4942736;28;20043;-57
2022/11/04 10:59:31;;;;;;;1.23;0.50;;;12.10;99.90;;;;;;4941647;28;20056;-55
2022/11/04 11:02:00;;;;;;;3.90;1.30;;;12.60;99.90;;;;;;4941146;28;20094;-56
2022/11/04 11:04:33;;;;;;;1.58;0.50;;;13.00;99.90;;;;;;4937294;28;20046;-57
2022/11/04 11:07:03;;;;;;;5.57;0.82;;;13.40;99.90;;;;;;4941726;28;20050;-55
2022/11/04 11:09:36;;;;;;;2.63;0.75;;;13.60;95.50;;;;;;4941683;28;20537;-56
2022/11/04 11:12:05;;;;;;;3.40;1.02;;;13.60;91.00;;;;;;4941919;28;20071;-53
2022/11/04 11:14:52;;;;;;;4.43;1.08;;;13.60;92.50;;;;;;4939341;28;20502;-55
2022/11/04 11:17:31;;;;;;;4.35;0.90;;;13.60;94.20;;;;;;4940483;28;20043;-57
2022/11/04 11:19:58;;;;;;;1.98;0.80;;;13.60;95.40;;;;;;4939230;28;20043;-57
2022/11/04 11:22:33;;;;;;;3.58;0.65;;;13.60;90.20;;;;;;4937461;28;20741;-55
2022/11/04 11:25:24;;;;;;;1.70;0.70;;;13.50;92.70;;;;;;4941136;28;20055;-57
2022/11/04 11:27:55;;;;;;;3.60;0.80;;;13.50;91.50;;;;;;4939582;28;20520;-57
2022/11/04 11:30:30;;;;;;;3.13;0.80;;;13.30;87.00;;;;;;4939029;28;20130;-54
2022/11/04 11:33:02;;;;;;;1.92;0.68;;;13.20;87.70;;;;;;4970791;28;20102;-54
2022/11/04 11:35:40;;;;;;;1.25;0.57;;;13.20;91.10;;;;;;4941004;28;20054;-54
2022/11/04 11:38:24;;;;;;;3.28;0.60;;;13.10;82.70;;;;;;4946253;28;20046;-55
2022/11/04 11:40:53;;;;;;;3.10;0.68;;;13.10;83.40;;;;;;4943830;28;20056;-54
2022/11/04 11:43:48;;;;;;;2.53;0.70;;;13.10;87.20;;;;;;4944553;28;20043;-55
2022/11/04 11:46:22;;;;;;;2.13;1.10;;;13.20;82.20;;;;;;4947863;28;20051;-53
2022/11/04 11:48:59;;;;;;;2.50;0.93;;;13.10;82.80;;;;;;4941989;28;20074;-57
2022/11/04 11:51:35;;;;;;;2.17;1.08;;;13.10;83.90;;;;;;4951537;28;20387;-54
2022/11/04 11:54:32;;;;;;;6.00;0.65;;;13.10;84.80;;;;;;4941566;28;20066;-55
2022/11/04 11:57:04;;;;;;;2.97;0.52;;;13.10;85.30;;;;;;4943836;28;20409;-56
2022/11/04 12:00:06;;;;;;;1.73;0.70;;;13.00;85.40;;;;;;4944803;28;20049;-56
2022/11/04 12:02:59;;;;;;;3.35;0.55;;;12.90;85.00;;;;;;4946237;28;20383;-56
2022/11/04 12:05:36;;;;;;;5.30;0.80;;;12.80;87.30;;;;;;4942195;28;20449;-55
2022/11/04 12:08:55;;;;;;;3.13;0.60;;;12.80;86.10;;;;;;4943013;28;20125;-56
2022/11/04 12:11:46;;;;;;;2.00;0.68;;;12.80;84.90;;;;;;4942736;28;20299;-57
2022/11/04 12:14:18;;;;;;;1.42;0.63;;;12.80;86.90;;;;;;4943770;28;20035;-56
2022/11/04 12:17:19;;;;;;;4.72;1.10;;;12.80;87.70;;;;;;4942926;28;20415;-56
2022/11/04 12:20:10;;;;;;;1.45;0.68;;;12.90;90.70;;;;;;4945734;28;20206;-56
2022/11/04 12:22:58;;;;;;;1.10;0.70;;;13.00;93.70;;;;;;4943353;28;20142;-56
2022/11/04 12:25:54;;;;;;;3.60;0.55;;;13.10;94.90;;;;;;4943851;28;20579;-56
2022/11/04 12:28:30;;;;;;;1.77;0.70;;;13.10;94.50;;;;;;4943451;28;20042;-56
2022/11/04 12:31:00;;;;;;;4.57;1.17;;;13.30;96.40;;;;;;4942801;28;20049;-56
2022/11/04 12:33:38;;;;;;;2.13;0.70;;;13.50;99.60;;;;;;4941839;28;20055;-55
2022/11/04 12:36:23;;;;;;;1.42;0.63;;;13.80;99.90;;;;;;4945853;28;20441;-56
2022/11/04 12:39:18;;;;;;;4.10;0.88;;;13.90;99.90;;;;;;4943806;28;20039;-57
2022/11/04 12:41:45;;;;;;;1.65;0.70;;;14.00;97.00;;;;;;4940726;28;20817;-55
2022/11/04 12:44:34;;;;;;;2.30;0.60;;;13.90;95.90;;;;;;4941175;28;20229;-55
2022/11/04 12:47:50;;;;;;;4.93;0.80;;;14.00;97.20;;;;;;4940696;28;20051;-54
2022/11/04 12:50:38;;;;;;;0.95;0.63;;;14.00;95.80;;;;;;4941578;28;20063;-57
2022/11/04 12:53:24;;;;;;;;;;;13.90;92.80;;;;;;4949655;28;20561;-56
2022/11/04 12:56:10;;;;;;;2.75;0.82;;;13.80;93.90;;;;;;4941748;28;20025;-59
2022/11/04 12:58:58;;;;;;;3.80;1.15;;;13.70;94.30;;;;;;4943999;28;20164;-57
2022/11/04 13:01:43;;;;;;;2.58;0.80;;;13.50;94.90;;;;;;4942272;28;20058;-56
2022/11/04 13:04:15;;;;;;;4.15;1.02;;;13.30;92.40;;;;;;4938004;28;20134;-57
2022/11/04 13:06:57;;;;;;;1.75;0.65;;;13.00;95.00;;;;;;4939832;28;20054;-56
2022/11/04 13:09:53;;;;;;;2.15;0.65;;;12.80;98.10;;;;;;4942550;28;20512;-57
2022/11/04 13:12:42;;;;;;;6.68;0.68;;;12.70;99.50;;;;;;4943286;28;20734;-56
2022/11/04 13:15:17;;;;;;;1.88;0.80;;;12.40;99.90;;;;;;4943698;28;20373;-56
2022/11/04 13:17:46;;;;;;;3.70;1.27;;;12.30;99.90;;;;;;4944062;28;20039;-57
2022/11/04 13:20:29;;;;;;;5.75;0.82;;;12.10;99.90;;;;;;4939879;28;20134;-55
2022/11/04 13:23:01;;;;;;;2.67;0.82;;;11.90;99.90;;;;;;4941038;28;20131;-56
2022/11/04 13:25:45;;;;;;;1.80;0.70;;;11.80;99.90;;;;;;4942472;28;20051;-57
2022/11/04 13:28:14;;;;;;;1.45;1.00;;;11.70;99.90;;;;;;4941482;28;20053;-56
2022/11/04 13:30:55;;;;;;;2.35;0.88;;;11.60;99.90;;;;;;4940889;28;20537;-56
2022/11/04 13:33:57;;;;;;;2.33;0.93;;;11.50;99.90;;;;;;4942294;28;20145;-57
2022/11/04 13:36:33;;;;;;;2.65;0.88;;;11.40;99.90;;;;;;4941156;28;20062;-57
2022/11/04 13:39:25;;;;;;;6.25;1.55;;;11.40;99.90;;;;;;4941753;28;20568;-57
2022/11/04 13:42:18;;;;;;;2.90;1.17;;;11.30;99.90;;;;;;4942417;28;20150;-57
2022/11/04 13:44:51;;;;;;;8.07;0.90;;;11.30;99.90;;;;;;4942417;28;20067;-56
2022/11/04 13:47:23;;;;;;;3.70;0.93;;;11.30;99.90;;;;;;4938163;28;21034;-57
2022/11/04 13:49:54;;;;;;;2.78;1.00;;;11.20;99.90;;;;;;4942257;28;20490;-57
2022/11/04 13:52:33;;;;;;;4.97;1.10;;;11.20;99.90;;;;;;4940636;28;20042;-57
2022/11/04 13:55:05;;;;;;;3.58;1.10;;;11.10;99.90;;;;;;4942235;28;20480;-57
2022/11/04 13:57:54;;;;;;;4.28;1.00;;;11.10;99.90;;;;;;4941892;28;20145;-57
2022/11/04 14:00:24;;;;;;;5.50;1.55;;;11.00;99.90;;;;;;4939881;28;20035;-57
2022/11/04 14:02:53;;;;;;;3.25;1.05;;;11.00;99.90;;;;;;4939107;28;20043;-57
2022/11/04 14:05:22;;;;;;;4.53;1.10;;;10.90;99.90;;;;;;4940791;28;20047;-57
2022/11/04 14:08:15;;;;;;;5.93;1.40;;;10.90;99.90;;;;;;4941278;28;20610;-57
2022/11/04 14:10:48;;;;;;;4.28;1.23;;;10.80;99.90;;;;;;4941478;28;20063;-57